TimeCDT,TemperatureF,Dew PointF,Humidity,Sea Level PressureIn,VisibilityMPH,Wind Direction,Wind SpeedMPH,Gust SpeedMPH,PrecipitationIn,Events,Conditions,WindDirDegrees,DateUTC
12:14 AM,6.8,1.4,79,29.81,10.0,WNW,15.0,21.9,N/A,,Scattered Clouds,300,2013-03-19 05:14:00
12:33 AM,6.8,1.4,79,29.81,10.0,WNW,15.0,23.0,N/A,,Scattered Clouds,300,2013-03-19 05:33:00
12:53 AM,6.8,1.4,79,29.81,10.0,WNW,18.4,24.2,N/A,,Scattered Clouds,300,2013-03-19 05:53:00
1:14 AM,6.8,1.4,79,29.82,10.0,WNW,18.4,24.2,N/A,,Mostly Cloudy,300,2013-03-19 06:14:00
1:33 AM,5.0,1.4,85,29.82,10.0,WNW,17.3,26.5,N/A,,Mostly Cloudy,300,2013-03-19 06:33:00
1:53 AM,5.0,-0.4,78,29.83,10.0,WNW,13.8,-,N/A,,Scattered Clouds,300,2013-03-19 06:53:00
2:14 AM,3.2,-0.4,85,29.83,10.0,WNW,16.1,-,N/A,,Clear,300,2013-03-19 07:14:00
2:33 AM,3.2,-0.4,85,29.84,10.0,WNW,12.7,20.7,N/A,,Clear,300,2013-03-19 07:33:00
2:53 AM,3.2,-0.4,85,29.85,10.0,WNW,11.5,-,N/A,,Clear,290,2013-03-19 07:53:00
3:13 AM,3.2,-2.2,78,29.86,10.0,WNW,13.8,19.6,N/A,,Clear,290,2013-03-19 08:13:00
3:33 AM,1.4,-2.2,85,29.86,10.0,WNW,13.8,-,N/A,,Clear,290,2013-03-19 08:33:00
3:53 AM,1.4,-2.2,85,29.86,10.0,WNW,16.1,-,N/A,,Clear,290,2013-03-19 08:53:00
4:13 AM,1.4,-2.2,85,29.87,10.0,WNW,15.0,-,N/A,,Clear,290,2013-03-19 09:13:00
4:34 AM,1.4,-2.2,85,29.88,10.0,WNW,12.7,-,N/A,,Clear,290,2013-03-19 09:34:00
4:53 AM,1.4,-2.2,85,29.88,10.0,WNW,9.2,-,N/A,,Clear,300,2013-03-19 09:53:00
5:13 AM,1.4,-2.2,85,29.89,10.0,WNW,15.0,20.7,N/A,,Clear,300,2013-03-19 10:13:00
5:34 AM,1.4,-4.0,78,29.90,10.0,WNW,16.1,-,N/A,,Clear,290,2013-03-19 10:34:00
5:53 AM,-0.4,-4.0,85,29.91,10.0,WNW,13.8,-,N/A,,Clear,290,2013-03-19 10:53:00
6:13 AM,-0.4,-4.0,85,29.92,10.0,WNW,13.8,-,N/A,,Clear,300,2013-03-19 11:13:00
6:34 AM,-0.4,-5.8,78,29.93,10.0,WNW,13.8,-,N/A,,Clear,300,2013-03-19 11:34:00
6:53 AM,-0.4,-5.8,78,29.94,10.0,WNW,12.7,-,N/A,,Clear,290,2013-03-19 11:53:00
7:13 AM,-0.4,-5.8,78,29.95,10.0,WNW,13.8,-,N/A,,Clear,300,2013-03-19 12:13:00
7:34 AM,-0.4,-5.8,78,29.95,10.0,WNW,12.7,18.4,N/A,,Clear,300,2013-03-19 12:34:00
7:53 AM,-0.4,-5.8,78,29.96,10.0,WNW,13.8,-,N/A,,Clear,300,2013-03-19 12:53:00
8:14 AM,-0.4,-5.8,78,29.97,10.0,WNW,12.7,-,N/A,,Clear,300,2013-03-19 13:14:00
8:33 AM,-0.4,-5.8,78,29.98,10.0,WNW,11.5,-,N/A,Snow,Light Snow,300,2013-03-19 13:33:00
8:53 AM,1.4,-5.8,72,29.99,10.0,WNW,12.7,-,N/A,,Clear,290,2013-03-19 13:53:00
9:14 AM,1.4,-5.8,72,30.00,7.0,WNW,12.7,-,N/A,,Clear,290,2013-03-19 14:14:00
9:33 AM,1.4,-4.0,78,30.01,7.0,WNW,12.7,19.6,N/A,,Clear,300,2013-03-19 14:33:00
9:53 AM,3.2,-4.0,72,30.02,10.0,WNW,15.0,-,N/A,,Clear,300,2013-03-19 14:53:00
10:14 AM,3.2,-4.0,72,30.02,7.0,WNW,15.0,-,N/A,,Clear,290,2013-03-19 15:14:00
10:33 AM,5.0,-2.2,72,30.02,7.0,WNW,13.8,-,N/A,,Clear,300,2013-03-19 15:33:00
10:53 AM,6.8,-2.2,67,30.03,10.0,WNW,16.1,-,N/A,,Clear,300,2013-03-19 15:53:00
11:14 AM,8.6,-2.2,62,30.03,10.0,WNW,16.1,-,N/A,,Scattered Clouds,290,2013-03-19 16:14:00
11:33 AM,8.6,-2.2,62,30.03,10.0,WNW,17.3,23.0,N/A,,Scattered Clouds,290,2013-03-19 16:33:00
11:53 AM,10.4,-0.4,62,30.04,10.0,NW,16.1,20.7,N/A,,Clear,310,2013-03-19 16:53:00
12:14 PM,10.4,-0.4,62,30.04,10.0,WNW,15.0,-,N/A,,Clear,290,2013-03-19 17:14:00
12:33 PM,12.2,1.4,62,30.04,10.0,WNW,11.5,17.3,N/A,,Clear,290,2013-03-19 17:33:00
12:53 PM,12.2,1.4,62,30.04,10.0,WNW,11.5,21.9,N/A,,Clear,290,2013-03-19 17:53:00
1:14 PM,14.0,1.4,57,30.04,10.0,WNW,13.8,-,N/A,,Clear,300,2013-03-19 18:14:00
1:33 PM,14.0,1.4,57,30.05,10.0,WNW,20.7,-,N/A,,Clear,290,2013-03-19 18:33:00
1:54 PM,14.0,1.4,57,30.06,10.0,WNW,19.6,24.2,N/A,,Clear,300,2013-03-19 18:54:00
2:13 PM,14.0,1.4,57,30.05,10.0,NW,16.1,24.2,N/A,,Clear,310,2013-03-19 19:13:00
2:33 PM,15.8,1.4,53,30.05,10.0,WNW,15.0,21.9,N/A,,Mostly Cloudy,300,2013-03-19 19:33:00
2:54 PM,15.8,1.4,53,30.06,10.0,West,17.3,25.3,N/A,,Overcast,280,2013-03-19 19:54:00
3:13 PM,14.0,1.4,57,30.06,10.0,WNW,19.6,23.0,N/A,,Scattered Clouds,290,2013-03-19 20:13:00
3:33 PM,14.0,-0.4,53,30.07,10.0,WNW,21.9,25.3,N/A,,Clear,300,2013-03-19 20:33:00
3:54 PM,14.0,1.4,57,30.08,10.0,WNW,18.4,21.9,N/A,,Clear,290,2013-03-19 20:54:00
4:13 PM,12.2,-0.4,57,30.09,10.0,WNW,19.6,25.3,N/A,,Clear,300,2013-03-19 21:13:00
4:33 PM,12.2,-0.4,57,30.09,10.0,WNW,20.7,-,N/A,,Clear,290,2013-03-19 21:33:00
4:54 PM,12.2,-2.2,53,30.10,10.0,WNW,21.9,26.5,N/A,,Clear,290,2013-03-19 21:54:00
5:13 PM,12.2,-2.2,53,30.11,10.0,WNW,19.6,25.3,N/A,,Clear,300,2013-03-19 22:13:00
5:33 PM,12.2,-2.2,53,30.12,10.0,WNW,23.0,28.8,N/A,,Clear,300,2013-03-19 22:33:00
5:53 PM,10.4,-2.2,57,30.13,10.0,WNW,18.4,24.2,N/A,,Clear,300,2013-03-19 22:53:00
6:13 PM,10.4,-2.2,57,30.13,10.0,WNW,18.4,23.0,N/A,,Clear,300,2013-03-19 23:13:00
6:33 PM,10.4,-2.2,57,30.14,10.0,WNW,19.6,26.5,N/A,,Clear,300,2013-03-19 23:33:00
7:13 PM,8.6,-5.8,52,30.16,10.0,WNW,18.4,21.9,N/A,,Clear,300,2013-03-20 00:13:00
7:33 PM,8.6,-5.8,52,30.16,10.0,WNW,16.1,19.6,N/A,,Clear,300,2013-03-20 00:33:00
7:54 PM,6.8,-5.8,56,30.17,10.0,WNW,15.0,20.7,N/A,,Clear,300,2013-03-20 00:54:00
8:13 PM,6.8,-5.8,56,30.18,10.0,WNW,13.8,-,N/A,,Clear,300,2013-03-20 01:13:00
8:33 PM,6.8,-5.8,56,30.18,10.0,WNW,13.8,18.4,N/A,,Clear,300,2013-03-20 01:33:00
8:53 PM,5.0,-5.8,61,30.18,10.0,WNW,13.8,-,N/A,,Clear,300,2013-03-20 01:53:00
9:13 PM,5.0,-5.8,61,30.17,10.0,WNW,13.8,-,N/A,,Clear,300,2013-03-20 02:13:00
9:33 PM,3.2,-5.8,66,30.17,10.0,WNW,11.5,-,N/A,,Clear,290,2013-03-20 02:33:00
9:54 PM,3.2,-4.0,72,30.17,10.0,WNW,13.8,-,N/A,,Clear,290,2013-03-20 02:54:00
10:13 PM,3.2,-4.0,72,30.17,10.0,WNW,16.1,19.6,N/A,,Clear,300,2013-03-20 03:13:00
10:33 PM,3.2,-5.8,66,30.17,10.0,WNW,12.7,-,N/A,,Clear,290,2013-03-20 03:33:00
10:54 PM,3.2,-5.8,66,30.17,10.0,WNW,15.0,-,N/A,,Clear,290,2013-03-20 03:54:00
11:13 PM,3.2,-5.8,66,30.17,10.0,WNW,15.0,-,N/A,,Clear,290,2013-03-20 04:13:00
11:33 PM,3.2,-5.8,66,30.17,10.0,WNW,16.1,19.6,N/A,,Clear,290,2013-03-20 04:33:00
11:53 PM,3.2,-4.0,72,30.17,10.0,WNW,17.3,-,N/A,,Clear,300,2013-03-20 04:53:00